Nearby METAR Reports

 

KSEE - San Diego/Santee, California, USA
Distance from station: E 4mi, 6km
Updated: 12/18/2017 11:47am
Clear
Clear
 Wind from calm
Wind: Calm
Temperature: 70°F , 21°C
Dew Point: 19°F , -7°C
Humidity: 15%
Barometer: 30.14 inHg , 1020.7 hPa
Clouds: Clear
Visibility: 10 miles , 16 km
2017/12/18 19:47 KSEE 181947Z 00000KT 10SM SKC 21/M07 A3014
KMYF - San Diego/Mntgmy, California, USA
Distance from station: W 6mi, 10km
Updated: 12/18/2017 11:53am
Clear
Clear
 Wind from varies
Wind: varies 5 mph , 7 km/h
Temperature: 73°F , 23°C
Dew Point: 21°F , -6°C
Humidity: 14%
Barometer: 30.14 inHg , 1020.7 hPa
Clouds: Clear
Visibility: 10 miles , 16 km
2017/12/18 19:53 KMYF 181953Z VRB04KT 10SM CLR 23/M06 A3014 RMK AO2 SLP202 T02331056
 
KNKX - Miramar Nas/San, California, USA
Distance from station: WNW 7mi, 11km
Updated: 12/18/2017 11:55am
Clear
Clear
 Wind from N
Wind: N 7 mph , 11 km/h
Temperature: 75°F , 24°C
Dew Point: 25°F , -4°C
Humidity: 15%
Barometer: 30.13 inHg , 1020.3 hPa
Clouds: Clear
Visibility: 10 miles , 16 km
2017/12/18 19:55 KNKX 181955Z 01006KT 10SM CLR 24/M04 A3013 RMK AO2 SLP199 T02391044
KSAN - San Diego, California, USA
Distance from station: WSW 11mi, 17km
Updated: 12/18/2017 11:51am
Few Clouds
Few Clouds
 Wind from WNW
Wind: WNW 9 mph , 15 km/h
Temperature: 70°F , 21°C
Dew Point: 28°F , -2°C
Humidity: 21%
Barometer: 30.15 inHg , 1021 hPa
Clouds: Few Clouds
Visibility: 10 miles , 16 km
Cloud details: Few Clouds 25000 ft
2017/12/18 19:51 KSAN 181951Z 29008KT 10SM FEW250 21/M02 A3015 RMK AO2 SLP210 T02061017
 
KNZY - North Island Nas, California, USA
Distance from station: SW 13mi, 22km
Updated: 12/18/2017 11:52am
Few Clouds
Few Clouds
 Wind from WNW
Wind: WNW 8 mph , 13 km/h
Temperature: 70°F , 21°C
Dew Point: 34°F , 1°C
Humidity: 27%
Barometer: 30.13 inHg , 1020.3 hPa
Clouds: Few Clouds
Visibility: 10 miles , 16 km
Cloud details: Few Clouds 25000 ft
2017/12/18 19:52 KNZY 181952Z 30007KT 10SM FEW250 21/01 A3013 RMK SLP203 T02060011
KRNM - Ramona, California, USA
Distance from station: NNE 16mi, 26km
Updated: 12/18/2017 11:53am
Clear
Clear
 Wind from varies
Wind: varies 7 mph , 11 km/h
Temperature: 68°F , 20°C
Dew Point: 25°F , -4°C
Humidity: 20%
Barometer: 30.14 inHg , 1020.7 hPa
Clouds: Clear
Visibility: 10 miles , 16 km
2017/12/18 19:53 KRNM 181953Z VRB06KT 10SM CLR 20/M04 A3014 RMK AO2 SLP200 T02001044
 
KSDM - San Diego/Brown, California, USA
Distance from station: S 16mi, 26km
Updated: 12/18/2017 11:53am
Clear
Clear
 Wind from varies
Wind: varies 6 mph , 9 km/h
Temperature: 72°F , 22°C
Dew Point: 25°F , -4°C
Humidity: 17%
Barometer: 30.13 inHg , 1020.3 hPa
Clouds: Clear
Visibility: 10 miles , 16 km
2017/12/18 19:53 KSDM 181953Z VRB05KT 10SM CLR 22/M04 A3013 RMK AO2 SLP200 T02171044
KNRS - Imperial Beach, California, USA
Distance from station: SSW 18mi, 29km
Updated: 12/18/2017 11:56am
Few Clouds
Few Clouds
 Wind from NW
Wind: NW 9 mph , 15 km/h
Temperature: 68°F , 20°C
Dew Point: 23°F , -5°C
Humidity: 18%
Barometer: 30.14 inHg , 1020.7 hPa
Clouds: Few Clouds
Visibility: 10 miles , 16 km
Cloud details: Few Clouds 25000 ft
2017/12/18 19:56 KNRS 181956Z 32008KT 10SM FEW250 20/M05 A3014 RMK AO2 SLP206 T02001050 $
 
MMTJ - Tijuana Intl Arp, Mexico
Distance from station: S 20mi, 32km
Updated: 12/18/2017 11:43am
Clear
Clear
 Wind from W
Wind: W 5 mph , 7 km/h
Temperature: 70°F , 21°C
Dew Point: 23°F , -5°C
Humidity: 17%
Barometer: 30.16 inHg , 1021.3 hPa
Clouds: Clear
Visibility: 8 miles , 13 km
2017/12/18 19:43 MMTJ 181943Z 26004KT 8SM SKC 21/M05 A3016 RMK HY
KCRQ - Carlsbad, California, USA
Distance from station: NW 26mi, 43km
Updated: 12/18/2017 11:53am
Clear
Clear
 Wind from W
Wind: W 7 mph , 11 km/h
Temperature: 66°F , 19°C
Dew Point: 28°F , -2°C
Humidity: 24%
Barometer: 30.13 inHg , 1020.3 hPa
Clouds: Clear
Visibility: 10 miles , 16 km
2017/12/18 19:53 KCRQ 181953Z 26006KT 10SM CLR 19/M02 A3013 RMK AO2 SLP202 T01941017
 
KOKB - Oceanside, California, USA
Distance from station: NW 33mi, 54km
Updated: 12/17/2017 11:52pm
NOT Current

 Wind from NNE
Wind: NNE 5 mph , 7 km/h
Temperature: 50°F , 10°C
Wind Chill: 48°F , 9°C
Dew Point: 28°F , -2°C
Humidity: 43%
Barometer: 30.05 inHg , 1017.6 hPa
Visibility: 10 miles , 16 km
2017/12/18 07:52 KOKB 180752Z AUTO 02004KT 10SM 10/M02 A3005 RMK AO2 SLP175 T01001022 402440033 TSNO $
KCZZ - Campo, California, USA
Distance from station: ESE 35mi, 56km
Updated: 12/18/2017 11:52am

 Wind from SSW
Wind: SSW 9 mph , 15 km/h
Temperature: 64°F , 18°C
Dew Point: 18°F , -8°C
Humidity: 16%
Barometer: 30.10 inHg , 1019.3 hPa
2017/12/18 19:52 KCZZ 181952Z AUTO 21008KT 18/M08 A3010 RMK AO1 SLP179 T01781078
 
KNFG - Camp Pendleton, California, USA
Distance from station: NNW 37mi, 59km
Updated: 12/18/2017 11:55am
Few Clouds
Few Clouds
 Wind from SSW
Wind: SSW 9 mph , 15 km/h
Temperature: 72°F , 22°C
Dew Point: 27°F , -3°C
Humidity: 19%
Barometer: 30.13 inHg , 1020.3 hPa
Clouds: Few Clouds
Visibility: 10 miles , 16 km
Cloud details: Few Clouds 25000 ft
2017/12/18 19:55 KNFG 181955Z 20008KT 10SM FEW250 22/M03 A3013 RMK AO2 SLP203 T02171033
KRIV - Riverside/March, California, USA
Distance from station: N 74mi, 119km
Updated: 12/18/2017 11:58am
Clear
Clear
 Wind from calm
Wind: Calm
Temperature: 66°F , 19°C
Dew Point: 16°F , -9°C
Humidity: 14%
Barometer: 30.15 inHg , 1021 hPa
Clouds: Clear
Visibility: 10 miles , 16 km
2017/12/18 19:58 KRIV 181958Z AUTO 00000KT 10SM CLR 19/M09 A3015 RMK AO2 SLP208 T01881093
 
KTRM - Thermal/Palm Spg, California, USA
Distance from station: NE 75mi, 121km
Updated: 12/18/2017 11:52am
Clear
Clear
 Wind from NW
Wind: NW 6 mph , 9 km/h
Temperature: 72°F , 22°C
Dew Point: 19°F , -7°C
Humidity: 14%
Barometer: 30.11 inHg , 1019.6 hPa
Clouds: Clear
Visibility: 10 miles , 16 km
2017/12/18 19:52 KTRM 181952Z AUTO 31005KT 10SM CLR 22/M07 A3011 RMK AO2 SLP197 T02171067
KPSP - Palm Springs, California, USA
Distance from station: NNE 76mi, 122km
Updated: 12/18/2017 11:53am
Clear
Clear
 Wind from NNW
Wind: NNW 3 mph , 6 km/h
Temperature: 73°F , 23°C
Dew Point: 12°F , -11°C
Humidity: 9%
Barometer: 30.14 inHg , 1020.7 hPa
Clouds: Clear
Visibility: 10 miles , 16 km
2017/12/18 19:53 KPSP 181953Z 34003KT 10SM CLR 23/M11 A3014 RMK AO2 SLP206 T02281106
 
KSNA - Costa Mesa, California, USA
Distance from station: NW 76mi, 123km
Updated: 12/18/2017 11:53am
Mostly cloudy
Mostly cloudy
 
Temperature: 66°F , 19°C
Dew Point: 41°F , 5°C
Humidity: 40%
Barometer: 30.15 inHg , 1021 hPa
Clouds: Mostly cloudy
Visibility: 10 miles , 16 km
Cloud details: Mostly cloudy 21000 ft
2017/12/18 19:53 KSNA 181953Z 10SM BKN210 19/05 A3015 RMK AO2 SLP209 T01940050
KNJK - El Centro Naf, California, USA
Distance from station: E 79mi, 127km
Updated: 12/18/2017 11:56am
Clear
Clear
 Wind from SE
Wind: SE 6 mph , 9 km/h
Temperature: 68°F , 20°C
Dew Point: 18°F , -8°C
Humidity: 14%
Barometer: 30.15 inHg , 1021 hPa
Clouds: Clear
Visibility: 10 miles , 16 km
2017/12/18 19:56 KNJK 181956Z 14005KT 10SM CLR 20/M08 A3015 RMK AO2 SLP226 T02001083 $
 
KAJO - Corona Muni, California, USA
Distance from station: NNW 82mi, 132km
Updated: 12/18/2017 11:56am
Clear
Clear
 Wind from N
Wind: N 7 mph , 11 km/h
Temperature: 72°F , 22°C
Dew Point: 19°F , -7°C
Humidity: 14%
Barometer: 30.15 inHg , 1021 hPa
Clouds: Clear
Visibility: 10 miles , 16 km
2017/12/18 19:56 KAJO 181956Z AUTO 36006KT 10SM CLR 22/M07 A3015 RMK AO2 SLP219 T02171067